createdAt,value
2022-08-11T00:02:15.139Z,54.58
2022-08-11T00:07:51.115Z,54.85
2022-08-11T00:13:26.685Z,54.86
2022-08-11T00:19:01.996Z,55.33
2022-08-11T00:22:03.122Z,55.51
2022-08-11T00:27:30.888Z,55.92
2022-08-11T00:33:06.347Z,55.86
2022-08-11T00:38:42.933Z,56.65
2022-08-11T00:41:27.496Z,57.05
2022-08-11T00:47:02.888Z,57.51
2022-08-11T00:52:38.550Z,57.72
2022-08-11T01:01:04.837Z,57.66
2022-08-11T01:09:30.972Z,57.85
2022-08-11T01:15:06.355Z,58.17
2022-08-11T01:23:32.400Z,58.00
2022-08-11T01:29:08.279Z,58.08
2022-08-11T01:31:52.844Z,58.20
2022-08-11T01:37:28.154Z,57.80
2022-08-11T01:48:44.879Z,57.75
2022-08-11T01:51:30.480Z,58.12
2022-08-11T01:57:08.498Z,58.34
2022-08-11T02:02:44.162Z,58.42
2022-08-11T02:08:19.823Z,59.49
2022-08-11T02:11:15.301Z,60.15
2022-08-11T02:16:50.915Z,61.45
2022-08-11T02:22:26.198Z,62.62
2022-08-11T02:28:01.487Z,63.83
2022-08-11T02:33:38.213Z,64.37
2022-08-11T02:39:13.660Z,64.22
2022-08-11T02:41:58.250Z,64.28
2022-08-11T02:47:33.821Z,64.45
2022-08-11T02:53:09.177Z,63.98
2022-08-11T02:58:44.566Z,63.77
2022-08-11T03:01:29.772Z,63.86
2022-08-11T03:07:05.290Z,64.79
2022-08-11T03:15:40.252Z,66.80
2022-08-11T03:21:15.997Z,67.68
2022-08-11T03:26:51.275Z,68.11
2022-08-11T03:35:21.178Z,68.54
2022-08-11T03:40:56.854Z,68.19
2022-08-11T03:46:32.131Z,70.25
2022-08-11T03:52:09.440Z,71.17
2022-08-11T03:57:44.896Z,72.12
2022-08-11T04:03:20.443Z,72.08
2022-08-11T04:08:57.101Z,72.64
2022-08-11T04:11:41.672Z,72.83
2022-08-11T04:17:16.946Z,72.68
2022-08-11T04:22:52.441Z,72.69
2022-08-11T04:28:28.937Z,73.27
2022-08-11T04:31:13.993Z,73.51
2022-08-11T04:36:58.474Z,73.52
2022-08-11T04:42:34.027Z,72.71
2022-08-11T04:48:09.455Z,72.02
2022-08-11T04:51:04.052Z,71.55
2022-08-11T04:56:39.296Z,70.74
2022-08-11T05:02:16.675Z,70.46
2022-08-11T05:07:52.835Z,70.00
2022-08-11T05:13:28.523Z,69.64
2022-08-11T05:19:04.198Z,68.77
2022-08-11T05:21:48.777Z,66.89
2022-08-11T05:27:24.310Z,64.01
2022-08-11T05:33:02.023Z,61.42
2022-08-11T05:38:37.865Z,59.23
2022-08-11T05:41:22.398Z,58.66
2022-08-11T05:46:57.703Z,56.80
2022-08-11T05:55:23.936Z,54.79
2022-08-11T06:00:59.258Z,53.72
2022-08-11T06:06:34.794Z,53.05
2022-08-11T06:12:11.815Z,52.56
2022-08-11T06:17:47.216Z,51.87
2022-08-11T06:23:22.550Z,51.22
2022-08-11T06:28:58.667Z,50.28
2022-08-11T06:31:43.392Z,49.92
2022-08-11T06:40:09.506Z,48.77
2022-08-11T06:42:53.979Z,48.36
2022-08-11T06:48:29.280Z,48.04
2022-08-11T06:51:13.733Z,47.72
2022-08-11T06:56:57.457Z,46.85
2022-08-11T07:02:34.139Z,46.30
2022-08-11T07:08:35.348Z,46.26
2022-08-11T07:11:03.476Z,46.28
2022-08-11T07:16:38.845Z,45.97
2022-08-11T07:22:14.242Z,45.24
2022-08-11T07:25:02.980Z,44.83
2022-08-11T07:30:38.909Z,44.49
2022-08-11T07:34:07.442Z,44.24
2022-08-11T07:39:09.347Z,43.80
2022-08-11T07:41:53.882Z,43.64
2022-08-11T07:50:19.929Z,42.90
2022-08-11T07:53:04.703Z,42.43
2022-08-11T07:58:44.871Z,42.35
2022-08-11T08:04:25.241Z,41.67
2022-08-11T08:10:00.484Z,41.51
2022-08-11T08:15:35.750Z,40.93
2022-08-11T08:18:25.983Z,40.78
2022-08-11T08:24:04.667Z,39.82
2022-08-11T08:29:40.843Z,38.68
2022-08-11T08:35:16.184Z,38.28
2022-08-11T08:38:00.696Z,37.92
2022-08-11T08:43:49.120Z,37.83
2022-08-11T08:49:20.248Z,37.02
2022-08-11T08:54:55.601Z,36.43
2022-08-11T09:00:31.170Z,36.63
2022-08-11T09:06:06.516Z,36.35
2022-08-11T09:08:53.132Z,35.98
2022-08-11T09:14:29.716Z,35.35
2022-08-11T09:23:24.298Z,34.88
2022-08-11T09:28:40.997Z,34.79
2022-08-11T09:31:25.603Z,34.43
2022-08-11T09:37:00.904Z,34.02
2022-08-11T09:42:36.643Z,33.47
2022-08-11T09:48:11.894Z,32.68
2022-08-11T09:50:56.420Z,32.58
2022-08-11T09:56:34.438Z,32.39
2022-08-11T10:02:15.995Z,32.14
2022-08-11T10:07:51.289Z,31.78
2022-08-11T10:14:32.131Z,31.37
2022-08-11T10:19:11.285Z,30.75
2022-08-11T10:21:56.174Z,29.80
2022-08-11T10:30:22.534Z,29.59
2022-08-11T10:33:10.633Z,30.02
2022-08-11T10:38:55.881Z,30.68
2022-08-11T10:42:06.184Z,30.17
2022-08-11T10:47:26.069Z,30.03
2022-08-11T10:53:01.407Z,29.51
2022-08-11T10:58:36.750Z,29.48
2022-08-11T11:01:21.356Z,29.30
2022-08-11T11:06:56.698Z,30.08
2022-08-11T11:12:32.025Z,29.28
2022-08-11T11:18:07.269Z,28.56
2022-08-11T11:23:42.596Z,28.05
2022-08-11T11:29:17.883Z,28.28
2022-08-11T11:32:02.411Z,28.56
2022-08-11T11:40:31.667Z,27.68
2022-08-11T11:46:07.463Z,27.67
2022-08-11T11:51:42.714Z,27.18
2022-08-11T11:57:20.846Z,26.91
2022-08-11T12:02:57.721Z,26.97
2022-08-11T12:08:33.013Z,27.17
2022-08-11T12:11:19.670Z,26.31
2022-08-11T12:16:55.036Z,26.41
2022-08-11T12:22:30.449Z,26.35
2022-08-11T12:28:05.670Z,26.77
2022-08-11T12:30:53.744Z,26.77
2022-08-11T12:36:29.633Z,26.29
2022-08-11T12:42:04.991Z,25.88
2022-08-11T12:47:40.855Z,24.67
2022-08-11T12:53:24.839Z,23.42
2022-08-11T12:59:00.225Z,21.35
2022-08-11T13:01:44.825Z,21.03
2022-08-11T13:07:22.224Z,19.15
2022-08-11T13:12:57.781Z,17.88
2022-08-11T13:18:33.135Z,16.59
2022-08-11T13:21:20.867Z,17.06
2022-08-11T13:26:56.563Z,16.51
2022-08-11T13:32:31.919Z,15.37
2022-08-11T13:38:19.703Z,15.04
2022-08-11T13:41:01.416Z,14.77
2022-08-11T13:46:36.726Z,13.74
2022-08-11T13:52:13.162Z,12.73
2022-08-11T13:58:08.177Z,11.80
2022-08-11T14:00:52.707Z,12.04
2022-08-11T14:12:21.451Z,10.95
2022-08-11T14:17:53.893Z,9.83
2022-08-11T14:23:29.924Z,9.71
2022-08-11T14:29:05.502Z,10.31
2022-08-11T14:31:50.173Z,9.79
2022-08-11T14:43:07.032Z,8.88
2022-08-11T14:48:42.594Z,8.64
2022-08-11T14:51:27.149Z,9.08
2022-08-11T14:57:02.599Z,8.49
2022-08-11T15:05:28.835Z,7.16
2022-08-11T15:11:05.150Z,6.85
2022-08-11T15:16:40.488Z,6.35
2022-08-11T15:25:06.459Z,6.71
2022-08-11T15:30:41.763Z,6.31
2022-08-11T15:33:27.320Z,6.14
2022-08-11T15:39:02.591Z,6.00
2022-08-11T15:41:58.421Z,7.05
2022-08-11T15:47:31.476Z,6.94
2022-08-11T15:53:11.280Z,7.03
2022-08-11T15:58:46.498Z,8.12
2022-08-11T16:01:39.986Z,10.80
2022-08-11T16:07:19.303Z,13.90
2022-08-11T16:13:03.637Z,14.85
2022-08-11T16:18:39.423Z,14.91
2022-08-11T16:21:34.042Z,14.67
2022-08-11T16:32:49.785Z,15.80
2022-08-11T16:38:25.094Z,16.92
2022-08-11T16:44:00.329Z,17.60
2022-08-11T16:49:35.666Z,18.07
2022-08-11T16:52:20.222Z,18.60
2022-08-11T16:57:55.546Z,19.22
2022-08-11T17:03:31.070Z,19.46
2022-08-11T17:09:06.357Z,19.92
2022-08-11T17:11:50.889Z,20.06
2022-08-11T17:17:26.208Z,20.15
2022-08-11T17:23:01.551Z,20.44
2022-08-11T17:28:36.877Z,20.58
2022-08-11T17:34:12.237Z,21.00
2022-08-11T17:39:47.657Z,21.64
2022-08-11T17:42:32.255Z,21.80
2022-08-11T17:48:11.838Z,21.95
2022-08-11T17:54:10.008Z,22.45
2022-08-11T17:59:32.592Z,22.48
2022-08-11T18:02:19.160Z,22.62
2022-08-11T18:07:56.200Z,22.64
2022-08-11T18:13:31.479Z,22.93
2022-08-11T18:22:14.247Z,23.18
2022-08-11T18:27:41.761Z,23.50
2022-08-11T18:33:44.812Z,23.34
2022-08-11T18:39:04.320Z,23.41
2022-08-11T18:41:49.824Z,23.51
2022-08-11T18:47:25.828Z,23.60
2022-08-11T18:53:07.176Z,24.03
2022-08-11T18:58:42.575Z,24.38
2022-08-11T19:01:27.127Z,24.62
2022-08-11T19:07:04.426Z,24.97
2022-08-11T19:12:39.842Z,25.41
2022-08-11T19:18:15.612Z,25.96
2022-08-11T19:23:50.879Z,26.20
2022-08-11T19:30:05.235Z,26.54
2022-08-11T19:32:19.624Z,26.74
2022-08-11T19:37:55.076Z,27.05
2022-08-11T19:43:30.668Z,27.37
2022-08-11T19:49:09.817Z,27.55
2022-08-11T19:51:54.776Z,27.75
2022-08-11T19:57:32.529Z,27.98
2022-08-11T20:03:14.741Z,28.71
2022-08-11T20:08:52.962Z,29.56
2022-08-11T20:11:43.812Z,29.74
2022-08-11T20:17:19.109Z,30.62
2022-08-11T20:22:54.495Z,31.18
2022-08-11T20:28:30.123Z,31.37
2022-08-11T20:34:08.280Z,31.65
2022-08-11T20:39:45.577Z,32.09
2022-08-11T20:42:30.707Z,32.28
2022-08-11T20:48:06.964Z,32.55
2022-08-11T20:56:34.264Z,33.08
2022-08-11T21:02:10.460Z,33.60
2022-08-11T21:07:55.580Z,34.17
2022-08-11T21:13:30.383Z,34.66
2022-08-11T21:19:07.240Z,35.03
2022-08-11T21:21:54.641Z,35.10
2022-08-11T21:27:29.872Z,35.73
2022-08-11T21:33:07.189Z,36.27
2022-08-11T21:38:44.702Z,36.65
2022-08-11T21:44:20.269Z,36.63
2022-08-11T21:49:55.715Z,36.71
2022-08-11T21:52:40.294Z,37.05
2022-08-11T21:58:15.711Z,37.55
2022-08-11T22:03:51.024Z,37.77
2022-08-11T22:09:26.328Z,38.27
2022-08-11T22:15:01.818Z,38.94
2022-08-11T22:20:37.092Z,38.99
2022-08-11T22:23:21.591Z,39.32
2022-08-11T22:28:56.925Z,39.46
2022-08-11T22:34:52.668Z,39.78
2022-08-11T22:40:25.471Z,40.07
2022-08-11T22:43:10.060Z,40.17
2022-08-11T22:48:45.318Z,40.48
2022-08-11T22:54:20.661Z,40.74
2022-08-11T22:59:55.976Z,41.01
2022-08-11T23:02:40.662Z,41.18
2022-08-11T23:08:16.146Z,41.36
2022-08-11T23:13:51.552Z,41.60
2022-08-11T23:20:08.086Z,41.98
2022-08-11T23:25:17.919Z,42.65
2022-08-11T23:30:55.423Z,43.06
2022-08-11T23:33:39.882Z,43.35
2022-08-11T23:39:15.303Z,43.83
2022-08-11T23:44:50.694Z,44.26
2022-08-11T23:50:25.904Z,44.30
2022-08-11T23:53:10.433Z,44.29
2022-08-11T23:58:45.745Z,44.38
